Deo Volente — PHFJ — position and weather

sailwx.info

Track history (hours):
 
Tides and Currents Weather Stations Pressure Air Temp Water Temp Dewpoint Dewpoint Depression Visibility Wind Speed Wind Dir Waves Ship Positions

Deo Volente

Last reported at 2017-Mar-29 16:34 UTC. Time now 2017-Mar-29 16:59 UTC.
Position N 52°25' E 004°51'.

Length 105 m; draft 5 m.

Type: Cargo ship. MMSI: 246518000.

Date/timePositionNaut miles runAvg speedWind from/ knotsBaromVisibWave heightAir tempDewpointWater temp
2017-Mar-29 16:34N 52°25' E 004°51'0 0.0
2017-Mar-29 15:34N 52°25' E 004°51'0 0.0
2017-Mar-29 14:34N 52°25' E 004°51'0 0.0
2017-Mar-29 13:34N 52°25' E 004°51'0 0.0
2017-Mar-29 12:34N 52°25' E 004°51'0 0.0
2017-Mar-29 11:34N 52°25' E 004°51'0 0.0
2017-Mar-29 10:33N 52°25' E 004°51'0 0.0
2017-Mar-29 09:33N 52°25' E 004°51'0 0.0
2017-Mar-29 08:34N 52°25' E 004°51'0 0.0
2017-Mar-29 07:34N 52°25' E 004°51'0 0.0
2017-Mar-29 06:34N 52°25' E 004°51'0 0.0
2017-Mar-29 05:34N 52°25' E 004°51'6 6.0
2017-Mar-29 04:33N 52°27' E 004°41'4 3.6
2017-Mar-29 03:34N 52°28' E 004°36'9 9.4
2017-Mar-29 02:33N 52°33' E 004°22'1414.1
2017-Mar-29 01:33N 52°47' E 004°24'1616.2
2017-Mar-29 00:33N 53°02' E 004°32'1914.3
2017-Mar-28 23:15N 53°21' E 004°34'10815.6
2017-Mar-28 16:20N 53°59' E 007°25'1417.8
2017-Mar-28 15:33N 54°01' E 007°48'1917.7
2017-Mar-28 14:29N 53°60' E 008°20'1516.6
2017-Mar-28 13:34N 53°53' E 008°43'1313.5
2017-Mar-28 12:34N 53°53' E 009°06'1110.9
2017-Mar-28 11:34N 53°48' E 009°23'1312.5
2017-Mar-28 10:33N 53°37' E 009°33'1313.4
2017-Mar-28 09:33N 53°33' E 009°54'3 3.2
2017-Mar-28 08:33N 53°32' E 009°59'0 0.0
2017-Mar-28 07:33N 53°32' E 009°59'0 0.0
2017-Mar-28 06:33N 53°32' E 009°59'0 0.0
2017-Mar-28 05:33N 53°32' E 009°59'0 0.0
2017-Mar-28 04:33N 53°32' E 009°59'0 0.0
2017-Mar-28 03:33N 53°32' E 009°59'0 0.0
2017-Mar-28 02:33N 53°32' E 009°59'0 0.0
2017-Mar-28 01:33N 53°32' E 009°59'0 0.0
2017-Mar-28 00:33N 53°32' E 009°59'0 0.0
2017-Mar-27 23:33N 53°32' E 009°59'0 0.0
2017-Mar-27 22:33N 53°32' E 009°59'1 0.8
2017-Mar-27 21:33N 53°33' E 009°58'10 9.9
2017-Mar-27 20:34N 53°34' E 009°42'1313.0
2017-Mar-27 19:33N 53°44' E 009°27'1313.2
2017-Mar-27 18:34N 53°53' E 009°11'10 9.5
2017-Mar-27 17:33N 53°51' E 008°55'1010.1
2017-Mar-27 16:33N 53°55' E 008°40'1312.6
2017-Mar-27 15:33N 53°59' E 008°20'1414.2
2017-Mar-27 14:33N 54°02' E 007°56'1514.7
2017-Mar-27 13:33N 54°13' E 007°39'1615.8
2017-Mar-27 12:33N 54°28' E 007°29'1616.0
2017-Mar-27 11:34N 54°43' E 007°19'1615.9
2017-Mar-27 10:33N 54°57' E 007°09'1616.1
2017-Mar-27 09:33N 55°13' E 007°02'1717.2
2017-Mar-27 08:33N 55°29' E 006°53'1817.6
2017-Mar-27 07:33N 55°46' E 006°44'16117.1
2017-Mar-26 22:09N 58°20' E 005°14'1017.3
2017-Mar-26 21:33N 58°30' E 005°10'1717.1
2017-Mar-26 20:34N 58°46' E 005°02'1716.9
2017-Mar-26 19:33N 59°03' E 004°53'2216.5
2017-Mar-26 18:13N 59°24' E 004°44'1116.3
2017-Mar-26 17:33N 59°35' E 004°42'1616.0
2017-Mar-26 16:33N 59°51' E 004°39'1616.5
2017-Mar-26 15:34N 60°07' E 004°35'1716.7
2017-Mar-26 14:34N 60°24' E 004°31'1615.5
2017-Mar-26 13:33N 60°39' E 004°27'1515.4
2017-Mar-26 12:33N 60°54' E 004°23'1515.3
2017-Mar-26 11:33N 61°10' E 004°21'1515.2
2017-Mar-26 10:33N 61°25' E 004°21'1615.7
2017-Mar-26 09:33N 61°41' E 004°25'1515.0
2017-Mar-26 08:33N 61°55' E 004°35'1514.7
2017-Mar-26 07:33N 62°08' E 004°49'1413.7
2017-Mar-26 06:33N 62°20' E 005°05'1312.7
2017-Mar-26 05:32N 62°30' E 005°22'1212.4
2017-Mar-26 04:34N 62°39' E 005°40'1212.1
2017-Mar-26 03:33N 62°47' E 005°58'1211.7
2017-Mar-26 02:33N 62°55' E 006°17'1111.3
2017-Mar-26 01:33N 63°02' E 006°37'1111.1
2017-Mar-26 00:33N 63°10' E 006°54'1111.1
2017-Mar-25 23:33N 63°19' E 007°09'1110.7
2017-Mar-25 22:33N 63°27' E 007°23'1111.0
2017-Mar-25 21:33N 63°37' E 007°35'9 8.8
2017-Mar-25 20:33N 63°43' E 007°49'1110.8
2017-Mar-25 19:33N 63°51' E 008°06'1111.0
2017-Mar-25 18:33N 63°58' E 008°25'4912.3
2017-Mar-25 14:33N 64°27' E 009°56'1413.6
2017-Mar-25 13:32N 64°34' E 010°24'1413.8
2017-Mar-25 12:33N 64°42' E 010°50'1110.6
2017-Mar-25 11:33N 64°43' E 011°15'1413.7
2017-Mar-25 10:33N 64°52' E 011°39'1 0.6
2017-Mar-25 09:33N 64°51' E 011°40'1514.8
2017-Mar-25 08:33N 64°43' E 011°11'1110.5
2017-Mar-25 07:33N 64°41' E 010°47'1515.6
2017-Mar-25 06:33N 64°32' E 010°17'5616.5
2017-Mar-25 03:08N 64°00' E 008°30'1016.8
2017-Mar-25 02:33N 63°53' E 008°13'1616.3
2017-Mar-25 01:33N 63°43' E 007°46'1615.9
2017-Mar-25 00:33N 63°31' E 007°22'1616.0
2017-Mar-24 23:33N 63°19' E 006°58'1716.4
2017-Mar-24 22:32N 63°07' E 006°33'1616.2
2017-Mar-24 21:33N 62°55' E 006°09'1616.3
2017-Mar-24 20:33N 62°43' E 005°45'1616.4
2017-Mar-24 19:33N 62°31' E 005°21'1616.4
2017-Mar-24 18:33N 62°18' E 004°60'1616.4
2017-Mar-24 17:33N 62°04' E 004°42'1616.3
2017-Mar-24 16:33N 61°48' E 004°29'1615.7
2017-Mar-24 15:33N 61°33' E 004°22'1615.9
2017-Mar-24 14:33N 61°17' E 004°20'1615.6
2017-Mar-24 13:33N 61°02' E 004°22'1414.4
2017-Mar-24 12:33N 60°48' E 004°31'1312.9
2017-Mar-24 11:33N 60°40' E 004°52'1010.3
2017-Mar-24 10:32N 60°35' E 005°11'0 0.0
2017-Mar-24 09:33N 60°35' E 005°11'0 0.0
2017-Mar-24 08:33N 60°35' E 005°11'0 0.0
2017-Mar-24 07:33N 60°35' E 005°11'0 0.0
2017-Mar-24 06:33N 60°35' E 005°11'0 0.0
2017-Mar-24 05:33N 60°35' E 005°11'0 0.0
2017-Mar-24 04:33N 60°35' E 005°11'0 0.0
2017-Mar-24 03:33N 60°35' E 005°11'0 0.0
2017-Mar-24 02:33N 60°35' E 005°11'0 0.0
2017-Mar-24 01:33N 60°35' E 005°11'0 0.0
2017-Mar-24 00:33N 60°35' E 005°11'0 0.1
2017-Mar-23 23:33N 60°35' E 005°11'8 8.4
2017-Mar-23 22:33N 60°27' E 005°16'1413.8
2017-Mar-23 21:34N 60°14' E 005°10'1616.3
2017-Mar-23 20:33N 59°59' E 005°23'1111.1
2017-Mar-23 19:34N 59°52' E 005°40'1413.9
2017-Mar-23 18:33N 60°02' E 006°00'0 0.0
2017-Mar-23 17:33N 60°02' E 006°00'0 0.0
2017-Mar-23 16:33N 60°02' E 006°00'0 0.0
2017-Mar-23 15:33N 60°02' E 006°00'0 0.0
2017-Mar-23 14:33N 60°02' E 006°00'0 0.0
2017-Mar-23 13:33N 60°02' E 006°00'0 0.0
2017-Mar-23 12:33N 60°02' E 006°00'0 0.0
2017-Mar-23 11:32N 60°02' E 006°00'0 0.0
2017-Mar-23 10:33N 60°02' E 006°00'0 0.0
2017-Mar-23 09:30N 60°02' E 006°00'1212.1
2017-Mar-23 08:33N 59°54' E 005°44'10 9.7
2017-Mar-23 07:33N 59°47' E 005°30'0 0.0
2017-Mar-23 06:33N 59°47' E 005°30'0 0.0
2017-Mar-23 05:33N 59°47' E 005°30'2 2.3
2017-Mar-23 04:33N 59°45' E 005°30'1615.9
2017-Mar-23 03:33N 59°31' E 005°13'1313.5
2017-Mar-23 02:33N 59°18' E 005°20'1413.9
2017-Mar-23 01:34N 59°04' E 005°21'1615.5
2017-Mar-23 00:33N 58°49' E 005°23'1514.9
2017-Mar-22 23:34N 58°34' E 005°27'1514.6
2017-Mar-22 22:34N 58°20' E 005°34'17215.6
2017-Mar-22 11:32N 55°34' E 006°52'1516.0
2017-Mar-22 10:34N 55°19' E 006°59'1616.0
2017-Mar-22 09:34N 55°03' E 007°05'1616.1
2017-Mar-22 08:33N 54°47' E 007°13'6015.0
2017-Mar-22 04:33N 53°52' E 007°53'1413.5
2017-Mar-22 03:33N 53°45' E 008°12'1414.0
2017-Mar-22 02:34N 53°36' E 008°30'5 5.1
2017-Mar-22 01:33N 53°32' E 008°35'0 0.5
2017-Mar-22 00:33N 53°31' E 008°35'0 0.0
2017-Mar-21 23:33N 53°31' E 008°34'0 0.0
2017-Mar-21 22:33N 53°31' E 008°35'0 0.0
2017-Mar-21 21:33N 53°31' E 008°34'0 0.0
2017-Mar-21 20:33N 53°31' E 008°34'0 0.0
2017-Mar-21 19:33N 53°31' E 008°34'0 0.0
2017-Mar-21 18:33N 53°31' E 008°35'1 0.5
2017-Mar-21 17:33N 53°32' E 008°35'5 5.0
2017-Mar-21 16:33N 53°36' E 008°30'1716.8
2017-Mar-21 15:33N 53°47' E 008°09'1515.1
2017-Mar-21 14:33N 53°53' E 007°45'3 2.6
2017-Mar-21 13:32N 53°53' E 007°40'12314.9
2017-Mar-21 05:18N 53°08' E 004°28'1215.8
2017-Mar-21 04:33N 52°58' E 004°19'1615.4
2017-Mar-21 03:33N 52°44' E 004°06'1515.3
2017-Mar-21 02:33N 52°31' E 003°55'1515.1
2017-Mar-21 01:33N 52°16' E 003°53'1414.2
2017-Mar-21 00:33N 52°02' E 003°55'1414.0
2017-Mar-20 23:34N 51°55' E 004°15'5 4.9
2017-Mar-20 22:33N 51°54' E 004°23'0 0.0
2017-Mar-20 21:31N 51°54' E 004°23'0 0.0
2017-Mar-20 20:31N 51°54' E 004°23'0 0.0
2017-Mar-20 19:31N 51°54' E 004°23'0 0.0
2017-Mar-20 18:31N 51°54' E 004°23'0 0.0
2017-Mar-20 17:28N 51°54' E 004°23'0 0.0
2017-Mar-20 16:31N 51°54' E 004°23'0 0.0
2017-Mar-20 15:31N 51°54' E 004°23'0 0.0
2017-Mar-20 14:31N 51°54' E 004°23'0 0.0
2017-Mar-20 13:31N 51°54' E 004°23'0 0.0
2017-Mar-20 12:31N 51°54' E 004°23'0 0.0
2017-Mar-20 11:31N 51°54' E 004°23'0 0.0
2017-Mar-20 10:28N 51°54' E 004°23'0 0.0
2017-Mar-20 09:31N 51°54' E 004°23'0 0.0
2017-Mar-20 08:31N 51°54' E 004°23'0 0.0
2017-Mar-20 07:31N 51°54' E 004°23'0 0.0
2017-Mar-20 06:31N 51°54' E 004°23'0 0.0
2017-Mar-20 05:31N 51°54' E 004°23'0 0.0
2017-Mar-20 04:33N 51°54' E 004°23'0 0.0
2017-Mar-20 03:33N 51°54' E 004°23'0 0.0
2017-Mar-20 02:33N 51°54' E 004°23'0 0.0
2017-Mar-20 01:33N 51°54' E 004°23'0 0.0
2017-Mar-20 00:33N 51°54' E 004°23'0 0.0
2017-Mar-19 23:33N 51°54' E 004°23'0 0.0
2017-Mar-19 22:33N 51°54' E 004°23'0 0.0
2017-Mar-19 21:33N 51°54' E 004°23'0 0.0
2017-Mar-19 20:33N 51°54' E 004°23'3 3.3
2017-Mar-19 19:34N 51°54' E 004°17'1414.4
2017-Mar-19 18:33N 52°00' E 003°56'  
Track history (hours):
 
Tides and Currents Weather Stations Pressure Air Temp Water Temp Dewpoint Dewpoint Depression Visibility Wind Speed Wind Dir Waves Ship Positions

Deo Volente

Last reported at 2017-Mar-29 16:34 UTC. Time now 2017-Mar-29 16:59 UTC.
Position N 52°25' E 004°51'.

Length 105 m; draft 5 m.

Type: Cargo ship. MMSI: 246518000.

Date/timePositionNaut miles runAvg speedWind from/ knotsBaromVisibWave heightAir tempDewpointWater temp
2017-Mar-29 16:34N 52°25' E 004°51'0 0.0
2017-Mar-29 15:34N 52°25' E 004°51'0 0.0
2017-Mar-29 14:34N 52°25' E 004°51'0 0.0
2017-Mar-29 13:34N 52°25' E 004°51'0 0.0
2017-Mar-29 12:34N 52°25' E 004°51'0 0.0
2017-Mar-29 11:34N 52°25' E 004°51'0 0.0
2017-Mar-29 10:33N 52°25' E 004°51'0 0.0
2017-Mar-29 09:33N 52°25' E 004°51'0 0.0
2017-Mar-29 08:34N 52°25' E 004°51'0 0.0
2017-Mar-29 07:34N 52°25' E 004°51'0 0.0
2017-Mar-29 06:34N 52°25' E 004°51'0 0.0
2017-Mar-29 05:34N 52°25' E 004°51'6 6.0
2017-Mar-29 04:33N 52°27' E 004°41'4 3.6
2017-Mar-29 03:34N 52°28' E 004°36'9 9.4
2017-Mar-29 02:33N 52°33' E 004°22'1414.1
2017-Mar-29 01:33N 52°47' E 004°24'1616.2
2017-Mar-29 00:33N 53°02' E 004°32'1914.3
2017-Mar-28 23:15N 53°21' E 004°34'10815.6
2017-Mar-28 16:20N 53°59' E 007°25'1417.8
2017-Mar-28 15:33N 54°01' E 007°48'1917.7
2017-Mar-28 14:29N 53°60' E 008°20'1516.6
2017-Mar-28 13:34N 53°53' E 008°43'1313.5
2017-Mar-28 12:34N 53°53' E 009°06'1110.9
2017-Mar-28 11:34N 53°48' E 009°23'1312.5
2017-Mar-28 10:33N 53°37' E 009°33'1313.4
2017-Mar-28 09:33N 53°33' E 009°54'3 3.2
2017-Mar-28 08:33N 53°32' E 009°59'0 0.0
2017-Mar-28 07:33N 53°32' E 009°59'0 0.0
2017-Mar-28 06:33N 53°32' E 009°59'0 0.0
2017-Mar-28 05:33N 53°32' E 009°59'0 0.0
2017-Mar-28 04:33N 53°32' E 009°59'0 0.0
2017-Mar-28 03:33N 53°32' E 009°59'0 0.0
2017-Mar-28 02:33N 53°32' E 009°59'0 0.0
2017-Mar-28 01:33N 53°32' E 009°59'0 0.0
2017-Mar-28 00:33N 53°32' E 009°59'0 0.0
2017-Mar-27 23:33N 53°32' E 009°59'0 0.0
2017-Mar-27 22:33N 53°32' E 009°59'1 0.8
2017-Mar-27 21:33N 53°33' E 009°58'10 9.9
2017-Mar-27 20:34N 53°34' E 009°42'1313.0
2017-Mar-27 19:33N 53°44' E 009°27'1313.2
2017-Mar-27 18:34N 53°53' E 009°11'10 9.5
2017-Mar-27 17:33N 53°51' E 008°55'1010.1
2017-Mar-27 16:33N 53°55' E 008°40'1312.6
2017-Mar-27 15:33N 53°59' E 008°20'1414.2
2017-Mar-27 14:33N 54°02' E 007°56'1514.7
2017-Mar-27 13:33N 54°13' E 007°39'1615.8
2017-Mar-27 12:33N 54°28' E 007°29'1616.0
2017-Mar-27 11:34N 54°43' E 007°19'1615.9
2017-Mar-27 10:33N 54°57' E 007°09'1616.1
2017-Mar-27 09:33N 55°13' E 007°02'1717.2
2017-Mar-27 08:33N 55°29' E 006°53'1817.6
2017-Mar-27 07:33N 55°46' E 006°44'16117.1
2017-Mar-26 22:09N 58°20' E 005°14'1017.3
2017-Mar-26 21:33N 58°30' E 005°10'1717.1
2017-Mar-26 20:34N 58°46' E 005°02'1716.9
2017-Mar-26 19:33N 59°03' E 004°53'2216.5
2017-Mar-26 18:13N 59°24' E 004°44'1116.3
2017-Mar-26 17:33N 59°35' E 004°42'1616.0
2017-Mar-26 16:33N 59°51' E 004°39'1616.5
2017-Mar-26 15:34N 60°07' E 004°35'1716.7
2017-Mar-26 14:34N 60°24' E 004°31'1615.5
2017-Mar-26 13:33N 60°39' E 004°27'1515.4
2017-Mar-26 12:33N 60°54' E 004°23'1515.3
2017-Mar-26 11:33N 61°10' E 004°21'1515.2
2017-Mar-26 10:33N 61°25' E 004°21'1615.7
2017-Mar-26 09:33N 61°41' E 004°25'1515.0
2017-Mar-26 08:33N 61°55' E 004°35'1514.7
2017-Mar-26 07:33N 62°08' E 004°49'1413.7
2017-Mar-26 06:33N 62°20' E 005°05'1312.7
2017-Mar-26 05:32N 62°30' E 005°22'1212.4
2017-Mar-26 04:34N 62°39' E 005°40'1212.1
2017-Mar-26 03:33N 62°47' E 005°58'1211.7
2017-Mar-26 02:33N 62°55' E 006°17'1111.3
2017-Mar-26 01:33N 63°02' E 006°37'1111.1
2017-Mar-26 00:33N 63°10' E 006°54'1111.1
2017-Mar-25 23:33N 63°19' E 007°09'1110.7
2017-Mar-25 22:33N 63°27' E 007°23'1111.0
2017-Mar-25 21:33N 63°37' E 007°35'9 8.8
2017-Mar-25 20:33N 63°43' E 007°49'1110.8
2017-Mar-25 19:33N 63°51' E 008°06'1111.0
2017-Mar-25 18:33N 63°58' E 008°25'4912.3
2017-Mar-25 14:33N 64°27' E 009°56'1413.6
2017-Mar-25 13:32N 64°34' E 010°24'1413.8
2017-Mar-25 12:33N 64°42' E 010°50'1110.6
2017-Mar-25 11:33N 64°43' E 011°15'1413.7
2017-Mar-25 10:33N 64°52' E 011°39'1 0.6
2017-Mar-25 09:33N 64°51' E 011°40'1514.8
2017-Mar-25 08:33N 64°43' E 011°11'1110.5
2017-Mar-25 07:33N 64°41' E 010°47'1515.6
2017-Mar-25 06:33N 64°32' E 010°17'5616.5
2017-Mar-25 03:08N 64°00' E 008°30'1016.8
2017-Mar-25 02:33N 63°53' E 008°13'1616.3
2017-Mar-25 01:33N 63°43' E 007°46'1615.9
2017-Mar-25 00:33N 63°31' E 007°22'1616.0
2017-Mar-24 23:33N 63°19' E 006°58'1716.4
2017-Mar-24 22:32N 63°07' E 006°33'1616.2
2017-Mar-24 21:33N 62°55' E 006°09'1616.3
2017-Mar-24 20:33N 62°43' E 005°45'1616.4
2017-Mar-24 19:33N 62°31' E 005°21'1616.4
2017-Mar-24 18:33N 62°18' E 004°60'1616.4
2017-Mar-24 17:33N 62°04' E 004°42'1616.3
2017-Mar-24 16:33N 61°48' E 004°29'1615.7
2017-Mar-24 15:33N 61°33' E 004°22'1615.9
2017-Mar-24 14:33N 61°17' E 004°20'1615.6
2017-Mar-24 13:33N 61°02' E 004°22'1414.4
2017-Mar-24 12:33N 60°48' E 004°31'1312.9
2017-Mar-24 11:33N 60°40' E 004°52'1010.3
2017-Mar-24 10:32N 60°35' E 005°11'0 0.0
2017-Mar-24 09:33N 60°35' E 005°11'0 0.0
2017-Mar-24 08:33N 60°35' E 005°11'0 0.0
2017-Mar-24 07:33N 60°35' E 005°11'0 0.0
2017-Mar-24 06:33N 60°35' E 005°11'0 0.0
2017-Mar-24 05:33N 60°35' E 005°11'0 0.0
2017-Mar-24 04:33N 60°35' E 005°11'0 0.0
2017-Mar-24 03:33N 60°35' E 005°11'0 0.0
2017-Mar-24 02:33N 60°35' E 005°11'0 0.0
2017-Mar-24 01:33N 60°35' E 005°11'0 0.0
2017-Mar-24 00:33N 60°35' E 005°11'0 0.1
2017-Mar-23 23:33N 60°35' E 005°11'8 8.4
2017-Mar-23 22:33N 60°27' E 005°16'1413.8
2017-Mar-23 21:34N 60°14' E 005°10'1616.3
2017-Mar-23 20:33N 59°59' E 005°23'1111.1
2017-Mar-23 19:34N 59°52' E 005°40'1413.9
2017-Mar-23 18:33N 60°02' E 006°00'0 0.0
2017-Mar-23 17:33N 60°02' E 006°00'0 0.0
2017-Mar-23 16:33N 60°02' E 006°00'0 0.0
2017-Mar-23 15:33N 60°02' E 006°00'0 0.0
2017-Mar-23 14:33N 60°02' E 006°00'0 0.0
2017-Mar-23 13:33N 60°02' E 006°00'0 0.0
2017-Mar-23 12:33N 60°02' E 006°00'0 0.0
2017-Mar-23 11:32N 60°02' E 006°00'0 0.0
2017-Mar-23 10:33N 60°02' E 006°00'0 0.0
2017-Mar-23 09:30N 60°02' E 006°00'1212.1
2017-Mar-23 08:33N 59°54' E 005°44'10 9.7
2017-Mar-23 07:33N 59°47' E 005°30'0 0.0
2017-Mar-23 06:33N 59°47' E 005°30'0 0.0
2017-Mar-23 05:33N 59°47' E 005°30'2 2.3
2017-Mar-23 04:33N 59°45' E 005°30'1615.9
2017-Mar-23 03:33N 59°31' E 005°13'1313.5
2017-Mar-23 02:33N 59°18' E 005°20'1413.9
2017-Mar-23 01:34N 59°04' E 005°21'1615.5
2017-Mar-23 00:33N 58°49' E 005°23'1514.9
2017-Mar-22 23:34N 58°34' E 005°27'1514.6
2017-Mar-22 22:34N 58°20' E 005°34'17215.6
2017-Mar-22 11:32N 55°34' E 006°52'1516.0
2017-Mar-22 10:34N 55°19' E 006°59'1616.0
2017-Mar-22 09:34N 55°03' E 007°05'1616.1
2017-Mar-22 08:33N 54°47' E 007°13'6015.0
2017-Mar-22 04:33N 53°52' E 007°53'1413.5
2017-Mar-22 03:33N 53°45' E 008°12'1414.0
2017-Mar-22 02:34N 53°36' E 008°30'5 5.1
2017-Mar-22 01:33N 53°32' E 008°35'0 0.5
2017-Mar-22 00:33N 53°31' E 008°35'0 0.0
2017-Mar-21 23:33N 53°31' E 008°34'0 0.0
2017-Mar-21 22:33N 53°31' E 008°35'0 0.0
2017-Mar-21 21:33N 53°31' E 008°34'0 0.0
2017-Mar-21 20:33N 53°31' E 008°34'0 0.0
2017-Mar-21 19:33N 53°31' E 008°34'0 0.0
2017-Mar-21 18:33N 53°31' E 008°35'1 0.5
2017-Mar-21 17:33N 53°32' E 008°35'5 5.0
2017-Mar-21 16:33N 53°36' E 008°30'1716.8
2017-Mar-21 15:33N 53°47' E 008°09'1515.1
2017-Mar-21 14:33N 53°53' E 007°45'3 2.6
2017-Mar-21 13:32N 53°53' E 007°40'12314.9
2017-Mar-21 05:18N 53°08' E 004°28'1215.8
2017-Mar-21 04:33N 52°58' E 004°19'1615.4
2017-Mar-21 03:33N 52°44' E 004°06'1515.3
2017-Mar-21 02:33N 52°31' E 003°55'1515.1
2017-Mar-21 01:33N 52°16' E 003°53'1414.2
2017-Mar-21 00:33N 52°02' E 003°55'1414.0
2017-Mar-20 23:34N 51°55' E 004°15'5 4.9
2017-Mar-20 22:33N 51°54' E 004°23'0 0.0
2017-Mar-20 21:31N 51°54' E 004°23'0 0.0
2017-Mar-20 20:31N 51°54' E 004°23'0 0.0
2017-Mar-20 19:31N 51°54' E 004°23'0 0.0
2017-Mar-20 18:31N 51°54' E 004°23'0 0.0
2017-Mar-20 17:28N 51°54' E 004°23'0 0.0
2017-Mar-20 16:31N 51°54' E 004°23'0 0.0
2017-Mar-20 15:31N 51°54' E 004°23'0 0.0
2017-Mar-20 14:31N 51°54' E 004°23'0 0.0
2017-Mar-20 13:31N 51°54' E 004°23'0 0.0
2017-Mar-20 12:31N 51°54' E 004°23'0 0.0
2017-Mar-20 11:31N 51°54' E 004°23'0 0.0
2017-Mar-20 10:28N 51°54' E 004°23'0 0.0
2017-Mar-20 09:31N 51°54' E 004°23'0 0.0
2017-Mar-20 08:31N 51°54' E 004°23'0 0.0
2017-Mar-20 07:31N 51°54' E 004°23'0 0.0
2017-Mar-20 06:31N 51°54' E 004°23'0 0.0
2017-Mar-20 05:31N 51°54' E 004°23'0 0.0
2017-Mar-20 04:33N 51°54' E 004°23'0 0.0
2017-Mar-20 03:33N 51°54' E 004°23'0 0.0
2017-Mar-20 02:33N 51°54' E 004°23'0 0.0
2017-Mar-20 01:33N 51°54' E 004°23'0 0.0
2017-Mar-20 00:33N 51°54' E 004°23'0 0.0
2017-Mar-19 23:33N 51°54' E 004°23'0 0.0
2017-Mar-19 22:33N 51°54' E 004°23'0 0.0
2017-Mar-19 21:33N 51°54' E 004°23'0 0.0
2017-Mar-19 20:33N 51°54' E 004°23'3 3.3
2017-Mar-19 19:34N 51°54' E 004°17'1414.4
2017-Mar-19 18:33N 52°00' E 003°56'  

Dump ship's entire track history